createdAt,value
2023-04-01T07:54:22.004Z,50.43
2023-04-01T07:56:58.510Z,50.48
2023-04-01T07:59:41.059Z,50.52
2023-04-01T08:02:32.936Z,50.46
2023-04-01T08:05:12.508Z,50.50
2023-04-01T08:07:43.257Z,50.40
2023-04-01T08:10:42.298Z,50.50
2023-04-01T08:13:37.745Z,50.35
2023-04-01T08:17:01.952Z,50.42
2023-04-01T08:19:57.752Z,50.48
2023-04-01T08:22:29.987Z,50.68
2023-04-01T08:25:09.058Z,50.70
2023-04-01T08:27:43.123Z,50.94
2023-04-01T08:30:18.524Z,51.02
2023-04-01T08:32:47.555Z,51.00
2023-04-01T08:35:17.995Z,51.08
2023-04-01T08:37:47.533Z,50.90
2023-04-01T08:40:38.874Z,50.99
2023-04-01T08:43:11.152Z,50.95
2023-04-01T08:45:52.645Z,51.18
2023-04-01T08:48:33.682Z,50.97
2023-04-01T08:51:27.195Z,51.13
2023-04-01T08:54:33.524Z,51.04
2023-04-01T09:01:24.565Z,50.80
2023-04-01T09:07:43.110Z,50.81
2023-04-01T09:10:38.906Z,50.91
2023-04-01T09:13:58.376Z,51.05
2023-04-01T09:16:32.684Z,51.15
2023-04-01T09:19:13.333Z,51.27
2023-04-01T09:21:51.928Z,51.23
2023-04-01T09:24:31.486Z,51.50
2023-04-01T09:27:06.087Z,51.28
2023-04-01T09:29:51.770Z,51.18
2023-04-01T09:32:35.892Z,51.03
2023-04-01T09:35:23.779Z,51.22
2023-04-01T09:38:36.124Z,51.11
2023-04-01T09:42:55.009Z,51.00
2023-04-01T09:45:20.302Z,50.87
2023-04-01T09:48:14.218Z,50.87
2023-04-01T09:50:49.385Z,50.76
2023-04-01T09:53:47.838Z,50.83
2023-04-01T09:56:32.972Z,50.92
2023-04-01T09:59:36.207Z,50.92
2023-04-01T10:02:49.142Z,50.92
2023-04-01T10:05:40.236Z,50.84
2023-04-01T10:08:19.457Z,51.04
2023-04-01T10:11:00.732Z,51.03
2023-04-01T10:13:50.692Z,51.10
2023-04-01T10:16:22.919Z,51.05
2023-04-01T10:18:58.773Z,51.01
2023-04-01T10:22:02.651Z,51.05
2023-04-01T10:24:46.221Z,51.26
2023-04-01T10:27:26.306Z,51.54
2023-04-01T10:30:28.925Z,51.68
2023-04-01T10:33:07.308Z,51.82
2023-04-01T10:35:57.905Z,51.71
2023-04-01T10:39:03.599Z,51.64
2023-04-01T10:45:39.992Z,51.41
2023-04-01T10:48:31.265Z,51.42
2023-04-01T10:51:20.603Z,51.36
2023-04-01T10:54:12.733Z,51.28
2023-04-01T10:57:02.342Z,51.27
2023-04-01T11:00:20.940Z,51.34
2023-04-01T11:03:56.630Z,51.38
2023-04-01T11:07:09.669Z,51.29
2023-04-01T11:13:33.800Z,51.44
2023-04-01T11:20:01.486Z,51.57
2023-04-01T11:22:41.739Z,51.64
2023-04-01T11:26:02.890Z,51.55
2023-04-01T11:29:11.572Z,51.49
2023-04-01T11:31:57.877Z,51.76
2023-04-01T11:34:46.400Z,51.69
2023-04-01T11:37:23.003Z,51.73
2023-04-01T11:40:26.272Z,51.62
2023-04-01T11:44:35.152Z,51.65
2023-04-01T12:00:14.088Z,51.81
2023-04-01T12:03:34.814Z,51.84
2023-04-01T12:25:41.681Z,51.44
2023-04-01T12:27:43.922Z,51.43
2023-04-01T12:30:21.421Z,51.57
2023-04-01T12:32:56.153Z,51.56
2023-04-01T12:35:28.113Z,51.64
2023-04-01T12:38:02.369Z,51.59
2023-04-01T12:40:37.689Z,51.53
2023-04-01T12:43:23.963Z,51.47
2023-04-01T12:45:53.164Z,51.54
2023-04-01T12:48:45.216Z,51.34
2023-04-01T12:51:37.481Z,51.37
2023-04-01T12:54:18.201Z,51.28
2023-04-01T12:57:04.954Z,51.34
2023-04-01T12:59:48.609Z,51.21
2023-04-01T13:02:35.127Z,51.38
2023-04-01T13:05:20.237Z,51.27
2023-04-01T13:08:18.503Z,51.31
2023-04-01T13:11:23.913Z,51.24
2023-04-01T13:14:29.118Z,51.28
2023-04-01T13:17:11.097Z,51.26
2023-04-01T13:20:05.032Z,51.15
2023-04-01T13:22:54.847Z,51.26
2023-04-01T13:26:43.645Z,51.15
2023-04-01T13:33:42.855Z,51.10
2023-04-01T13:37:11.257Z,51.08
2023-04-01T13:43:39.095Z,51.06
2023-04-01T13:50:58.567Z,50.92
2023-04-01T14:33:44.542Z,50.69
2023-04-01T14:36:31.033Z,50.55
2023-04-01T14:39:03.988Z,50.41
2023-04-01T14:41:45.975Z,50.52
2023-04-01T14:44:55.606Z,50.58
2023-04-01T14:47:37.598Z,50.47
2023-04-01T14:50:07.648Z,50.51
2023-04-01T14:52:36.938Z,50.37
2023-04-01T14:55:10.251Z,50.41
2023-04-01T14:57:42.832Z,50.41
2023-04-01T15:00:19.583Z,50.35
2023-04-01T15:02:56.366Z,50.27
2023-04-01T15:05:31.777Z,50.19
2023-04-01T15:08:18.616Z,50.22
2023-04-01T15:10:54.927Z,50.38
2023-04-01T15:13:30.128Z,50.36
2023-04-01T15:16:23.048Z,50.41
2023-04-01T15:18:54.236Z,50.28
2023-04-01T15:21:34.587Z,50.19
2023-04-01T15:24:36.861Z,50.11
2023-04-01T15:27:13.740Z,50.01
2023-04-01T15:30:06.059Z,50.07
2023-04-01T15:32:41.144Z,49.94
2023-04-01T15:38:14.040Z,49.99
2023-04-01T15:41:17.456Z,49.97
2023-04-01T15:43:59.930Z,49.85
2023-04-01T15:47:20.191Z,49.88
2023-04-01T15:50:22.720Z,49.78
2023-04-01T15:53:58.681Z,49.80
2023-04-01T15:56:44.512Z,49.79
2023-04-01T15:59:25.222Z,49.73
2023-04-01T16:01:56.568Z,49.80
2023-04-01T16:05:02.460Z,49.87
2023-04-01T16:07:56.153Z,49.94
2023-04-01T16:10:36.054Z,49.88
2023-04-01T16:13:07.657Z,49.76
2023-04-01T16:15:40.336Z,49.71
2023-04-01T16:18:23.436Z,49.67
2023-04-01T16:21:14.365Z,49.71
2023-04-01T16:23:42.910Z,49.46
2023-04-01T16:26:14.854Z,49.67
2023-04-01T16:28:46.005Z,49.46
2023-04-01T16:31:19.916Z,49.52
2023-04-01T16:34:02.072Z,49.52
2023-04-01T16:36:32.229Z,49.37
2023-04-01T16:39:09.714Z,49.42
2023-04-01T17:32:22.964Z,48.62
2023-04-01T17:35:12.529Z,48.75
2023-04-01T17:40:44.971Z,48.42
2023-04-01T17:44:01.179Z,48.64
2023-04-01T17:51:16.093Z,48.31
2023-04-01T17:54:03.956Z,48.41
2023-04-01T17:56:59.776Z,48.60
2023-04-01T17:59:41.995Z,48.16
2023-04-01T18:02:25.890Z,48.26
2023-04-01T18:05:28.214Z,48.12
2023-04-01T18:08:08.819Z,47.97
2023-04-01T18:11:10.357Z,48.14
2023-04-01T18:17:50.177Z,48.06
2023-04-01T18:21:16.423Z,48.33
2023-04-01T18:23:55.651Z,48.12
2023-04-01T18:30:29.082Z,48.05
2023-04-01T18:41:04.935Z,47.64
